sensor_id;sensor_type;location;lat;lon;timestamp;pressure;altitude;pressure_sealevel;temperature;humidity
85244;BME280;75643;56.928;41.094;2024-03-02T00:01:16;101570.31;;;0.91;86.13
85244;BME280;75643;56.928;41.094;2024-03-02T00:03:43;101568.50;;;0.90;86.58
85244;BME280;75643;56.928;41.094;2024-03-02T00:06:10;101573.00;;;0.92;86.41
85244;BME280;75643;56.928;41.094;2024-03-02T00:08:36;101569.50;;;0.92;86.50
85244;BME280;75643;56.928;41.094;2024-03-02T00:11:03;101560.88;;;0.93;86.42
85244;BME280;75643;56.928;41.094;2024-03-02T00:13:29;101568.59;;;0.91;86.21
85244;BME280;75643;56.928;41.094;2024-03-02T00:15:57;101570.41;;;0.92;85.98
85244;BME280;75643;56.928;41.094;2024-03-02T00:18:31;101573.09;;;0.94;86.02
85244;BME280;75643;56.928;41.094;2024-03-02T00:20:58;101568.19;;;0.83;85.95
85244;BME280;75643;56.928;41.094;2024-03-02T00:23:27;101578.78;;;0.87;86.21
85244;BME280;75643;56.928;41.094;2024-03-02T00:25:56;101584.88;;;0.87;86.36
85244;BME280;75643;56.928;41.094;2024-03-02T00:28:27;101575.84;;;0.80;86.25
85244;BME280;75643;56.928;41.094;2024-03-02T00:30:59;101582.75;;;0.80;86.31
85244;BME280;75643;56.928;41.094;2024-03-02T00:33:28;101570.09;;;0.71;86.77
85244;BME280;75643;56.928;41.094;2024-03-02T00:35:56;101578.44;;;0.80;86.87
85244;BME280;75643;56.928;41.094;2024-03-02T00:38:22;101587.38;;;0.86;87.01
85244;BME280;75643;56.928;41.094;2024-03-02T00:40:49;101579.59;;;0.86;86.75
85244;BME280;75643;56.928;41.094;2024-03-02T00:46:03;101585.84;;;0.89;86.80
85244;BME280;75643;56.928;41.094;2024-03-02T00:48:29;101567.38;;;0.85;86.78
85244;BME280;75643;56.928;41.094;2024-03-02T00:50:57;101576.31;;;0.90;86.26
85244;BME280;75643;56.928;41.094;2024-03-02T00:53:26;101584.94;;;0.89;86.29
85244;BME280;75643;56.928;41.094;2024-03-02T00:55:52;101584.13;;;0.90;86.24
85244;BME280;75643;56.928;41.094;2024-03-02T00:58:18;101578.31;;;0.94;86.22
85244;BME280;75643;56.928;41.094;2024-03-02T01:00:44;101583.66;;;0.97;85.97
85244;BME280;75643;56.928;41.094;2024-03-02T01:03:11;101578.47;;;0.97;86.19
85244;BME280;75643;56.928;41.094;2024-03-02T01:05:41;101575.19;;;1.01;86.05
85244;BME280;75643;56.928;41.094;2024-03-02T01:08:09;101588.41;;;1.04;85.91
85244;BME280;75643;56.928;41.094;2024-03-02T01:10:35;101578.00;;;1.04;85.45
85244;BME280;75643;56.928;41.094;2024-03-02T01:13:02;101592.34;;;1.12;85.73
85244;BME280;75643;56.928;41.094;2024-03-02T01:15:28;101580.75;;;1.07;85.42
85244;BME280;75643;56.928;41.094;2024-03-02T01:17:54;101574.97;;;0.96;86.09
85244;BME280;75643;56.928;41.094;2024-03-02T01:20:20;101587.81;;;0.93;85.66
85244;BME280;75643;56.928;41.094;2024-03-02T01:22:47;101590.16;;;0.89;86.41
85244;BME280;75643;56.928;41.094;2024-03-02T01:25:14;101580.00;;;0.93;86.45
85244;BME280;75643;56.928;41.094;2024-03-02T01:27:40;101592.38;;;0.97;85.96
85244;BME280;75643;56.928;41.094;2024-03-02T01:30:06;101574.00;;;0.94;85.98
85244;BME280;75643;56.928;41.094;2024-03-02T01:32:32;101578.88;;;0.88;86.09
85244;BME280;75643;56.928;41.094;2024-03-02T01:34:59;101593.66;;;0.89;86.07
85244;BME280;75643;56.928;41.094;2024-03-02T01:37:25;101593.31;;;0.83;86.23
85244;BME280;75643;56.928;41.094;2024-03-02T01:39:51;101591.44;;;0.80;86.89
85244;BME280;75643;56.928;41.094;2024-03-02T01:42:17;101597.81;;;0.86;86.70
85244;BME280;75643;56.928;41.094;2024-03-02T01:44:43;101587.53;;;0.89;86.33
85244;BME280;75643;56.928;41.094;2024-03-02T01:47:09;101598.16;;;0.92;86.41
85244;BME280;75643;56.928;41.094;2024-03-02T01:49:36;101587.38;;;0.86;86.01
85244;BME280;75643;56.928;41.094;2024-03-02T01:52:03;101595.00;;;0.82;86.39
85244;BME280;75643;56.928;41.094;2024-03-02T01:54:29;101593.06;;;0.78;86.63
85244;BME280;75643;56.928;41.094;2024-03-02T01:56:59;101600.16;;;0.81;86.19
85244;BME280;75643;56.928;41.094;2024-03-02T01:59:25;101592.16;;;0.78;86.10
85244;BME280;75643;56.928;41.094;2024-03-02T02:01:52;101598.25;;;0.78;86.64
85244;BME280;75643;56.928;41.094;2024-03-02T02:04:18;101587.19;;;0.82;86.55
85244;BME280;75643;56.928;41.094;2024-03-02T02:06:44;101607.41;;;0.87;86.65
85244;BME280;75643;56.928;41.094;2024-03-02T02:09:10;101596.81;;;0.83;86.33
85244;BME280;75643;56.928;41.094;2024-03-02T02:11:37;101609.56;;;0.79;86.75
85244;BME280;75643;56.928;41.094;2024-03-02T02:14:06;101611.19;;;0.77;86.63
85244;BME280;75643;56.928;41.094;2024-03-02T02:16:32;101597.91;;;0.72;86.83
85244;BME280;75643;56.928;41.094;2024-03-02T02:18:58;101587.00;;;0.63;87.23
85244;BME280;75643;56.928;41.094;2024-03-02T02:21:24;101606.63;;;0.73;87.08
85244;BME280;75643;56.928;41.094;2024-03-02T02:23:51;101611.13;;;0.75;87.30
85244;BME280;75643;56.928;41.094;2024-03-02T02:26:17;101605.72;;;0.72;86.91
85244;BME280;75643;56.928;41.094;2024-03-02T02:28:44;101602.41;;;0.75;86.80
85244;BME280;75643;56.928;41.094;2024-03-02T02:31:16;101594.41;;;0.72;87.25
85244;BME280;75643;56.928;41.094;2024-03-02T02:33:42;101604.91;;;0.73;87.29
85244;BME280;75643;56.928;41.094;2024-03-02T02:36:08;101609.78;;;0.67;87.08
85244;BME280;75643;56.928;41.094;2024-03-02T02:38:39;101604.41;;;0.64;87.29
85244;BME280;75643;56.928;41.094;2024-03-02T02:41:07;101601.47;;;0.58;87.57
85244;BME280;75643;56.928;41.094;2024-03-02T02:43:33;101606.38;;;0.54;87.82
85244;BME280;75643;56.928;41.094;2024-03-02T02:45:59;101615.44;;;0.60;87.92
85244;BME280;75643;56.928;41.094;2024-03-02T02:48:25;101614.84;;;0.64;87.78
85244;BME280;75643;56.928;41.094;2024-03-02T02:50:51;101607.38;;;0.70;87.86
85244;BME280;75643;56.928;41.094;2024-03-02T02:53:18;101613.53;;;0.72;87.35
85244;BME280;75643;56.928;41.094;2024-03-02T02:55:44;101624.13;;;0.75;87.44
85244;BME280;75643;56.928;41.094;2024-03-02T02:58:10;101617.13;;;0.74;87.35
85244;BME280;75643;56.928;41.094;2024-03-02T03:00:36;101609.97;;;0.70;87.42
85244;BME280;75643;56.928;41.094;2024-03-02T03:03:02;101619.00;;;0.77;87.41
85244;BME280;75643;56.928;41.094;2024-03-02T03:05:29;101622.16;;;0.71;87.41
85244;BME280;75643;56.928;41.094;2024-03-02T03:07:55;101621.44;;;0.74;87.38
85244;BME280;75643;56.928;41.094;2024-03-02T03:10:21;101592.91;;;0.61;87.40
85244;BME280;75643;56.928;41.094;2024-03-02T03:12:49;101606.03;;;0.62;87.52
85244;BME280;75643;56.928;41.094;2024-03-02T03:15:15;101606.28;;;0.67;87.53
85244;BME280;75643;56.928;41.094;2024-03-02T03:17:42;101602.28;;;0.57;87.54
85244;BME280;75643;56.928;41.094;2024-03-02T03:20:08;101607.81;;;0.63;87.18
85244;BME280;75643;56.928;41.094;2024-03-02T03:22:41;101618.41;;;0.66;87.29
85244;BME280;75643;56.928;41.094;2024-03-02T03:25:07;101620.75;;;0.62;87.31
85244;BME280;75643;56.928;41.094;2024-03-02T03:27:36;101626.66;;;0.59;87.79
85244;BME280;75643;56.928;41.094;2024-03-02T03:30:03;101617.69;;;0.54;87.93
85244;BME280;75643;56.928;41.094;2024-03-02T03:32:30;101631.50;;;0.53;87.51
85244;BME280;75643;56.928;41.094;2024-03-02T03:34:56;101607.47;;;0.43;87.83
85244;BME280;75643;56.928;41.094;2024-03-02T03:37:22;101620.78;;;0.47;87.78
85244;BME280;75643;56.928;41.094;2024-03-02T03:39:50;101633.50;;;0.43;88.21
85244;BME280;75643;56.928;41.094;2024-03-02T03:42:17;101628.13;;;0.39;88.14
85244;BME280;75643;56.928;41.094;2024-03-02T03:44:43;101636.03;;;0.41;88.41
85244;BME280;75643;56.928;41.094;2024-03-02T03:47:09;101631.63;;;0.40;88.67
85244;BME280;75643;56.928;41.094;2024-03-02T03:49:35;101639.44;;;0.40;89.04
85244;BME280;75643;56.928;41.094;2024-03-02T03:52:01;101644.69;;;0.41;88.83
85244;BME280;75643;56.928;41.094;2024-03-02T03:54:27;101645.59;;;0.42;89.01
85244;BME280;75643;56.928;41.094;2024-03-02T03:56:54;101640.50;;;0.44;89.38
85244;BME280;75643;56.928;41.094;2024-03-02T03:59:20;101626.13;;;0.35;89.35
85244;BME280;75643;56.928;41.094;2024-03-02T04:01:46;101644.34;;;0.50;89.05
85244;BME280;75643;56.928;41.094;2024-03-02T04:04:12;101647.47;;;0.59;88.85
85244;BME280;75643;56.928;41.094;2024-03-02T04:06:38;101639.97;;;0.64;88.57
85244;BME280;75643;56.928;41.094;2024-03-02T04:09:04;101655.38;;;0.75;88.24
85244;BME280;75643;56.928;41.094;2024-03-02T04:11:31;101642.41;;;0.77;87.70
85244;BME280;75643;56.928;41.094;2024-03-02T04:13:57;101642.25;;;0.74;87.48
85244;BME280;75643;56.928;41.094;2024-03-02T04:16:23;101649.00;;;0.70;87.13
85244;BME280;75643;56.928;41.094;2024-03-02T04:18:49;101636.72;;;0.68;87.98
85244;BME280;75643;56.928;41.094;2024-03-02T04:21:15;101639.31;;;0.68;87.61
85244;BME280;75643;56.928;41.094;2024-03-02T04:23:42;101641.38;;;0.73;87.87
85244;BME280;75643;56.928;41.094;2024-03-02T04:26:08;101630.59;;;0.67;87.41
85244;BME280;75643;56.928;41.094;2024-03-02T04:28:34;101627.84;;;0.64;87.75
85244;BME280;75643;56.928;41.094;2024-03-02T04:31:00;101650.88;;;0.73;87.27
85244;BME280;75643;56.928;41.094;2024-03-02T04:33:26;101631.34;;;0.50;87.42
85244;BME280;75643;56.928;41.094;2024-03-02T04:35:53;101655.91;;;0.55;88.12
85244;BME280;75643;56.928;41.094;2024-03-02T04:38:19;101655.75;;;0.52;87.91
85244;BME280;75643;56.928;41.094;2024-03-02T04:40:45;101659.88;;;0.49;88.14
85244;BME280;75643;56.928;41.094;2024-03-02T04:43:11;101656.47;;;0.50;88.41
85244;BME280;75643;56.928;41.094;2024-03-02T04:45:42;101647.59;;;0.46;88.72
85244;BME280;75643;56.928;41.094;2024-03-02T04:48:09;101651.91;;;0.46;88.39
85244;BME280;75643;56.928;41.094;2024-03-02T04:50:35;101638.53;;;0.39;88.18
85244;BME280;75643;56.928;41.094;2024-03-02T04:53:01;101662.56;;;0.50;88.24
85244;BME280;75643;56.928;41.094;2024-03-02T04:55:28;101650.91;;;0.44;88.73
85244;BME280;75643;56.928;41.094;2024-03-02T04:57:55;101661.88;;;0.53;88.01
85244;BME280;75643;56.928;41.094;2024-03-02T05:00:22;101657.19;;;0.47;88.42
85244;BME280;75643;56.928;41.094;2024-03-02T05:02:48;101650.19;;;0.46;88.29
85244;BME280;75643;56.928;41.094;2024-03-02T05:05:14;101661.13;;;0.55;88.64
85244;BME280;75643;56.928;41.094;2024-03-02T05:07:43;101652.41;;;0.55;88.47
85244;BME280;75643;56.928;41.094;2024-03-02T05:10:10;101664.88;;;0.60;88.18
85244;BME280;75643;56.928;41.094;2024-03-02T05:12:37;101661.22;;;0.57;88.52
85244;BME280;75643;56.928;41.094;2024-03-02T05:15:22;101652.50;;;0.56;88.15
85244;BME280;75643;56.928;41.094;2024-03-02T05:17:48;101663.72;;;0.70;88.51
85244;BME280;75643;56.928;41.094;2024-03-02T05:20:15;101665.59;;;0.87;88.00
85244;BME280;75643;56.928;41.094;2024-03-02T05:22:43;101666.34;;;1.01;87.30
85244;BME280;75643;56.928;41.094;2024-03-02T05:25:09;101659.81;;;0.93;86.33
85244;BME280;75643;56.928;41.094;2024-03-02T05:27:38;101672.66;;;0.90;87.15
85244;BME280;75643;56.928;41.094;2024-03-02T05:30:05;101667.38;;;0.88;86.68
85244;BME280;75643;56.928;41.094;2024-03-02T05:32:33;101659.13;;;0.80;87.07
85244;BME280;75643;56.928;41.094;2024-03-02T05:34:59;101656.53;;;0.80;87.34
85244;BME280;75643;56.928;41.094;2024-03-02T05:37:25;101672.94;;;0.94;86.92
85244;BME280;75643;56.928;41.094;2024-03-02T05:39:52;101666.19;;;0.98;86.97
85244;BME280;75643;56.928;41.094;2024-03-02T05:42:18;101669.84;;;1.01;87.00
85244;BME280;75643;56.928;41.094;2024-03-02T05:44:44;101662.81;;;1.15;86.92
85244;BME280;75643;56.928;41.094;2024-03-02T05:47:10;101674.63;;;1.24;86.14
85244;BME280;75643;56.928;41.094;2024-03-02T05:49:37;101662.97;;;1.18;85.87
85244;BME280;75643;56.928;41.094;2024-03-02T05:52:03;101663.66;;;1.30;86.13
85244;BME280;75643;56.928;41.094;2024-03-02T05:54:29;101642.81;;;1.30;85.59
85244;BME280;75643;56.928;41.094;2024-03-02T05:56:55;101661.09;;;1.46;85.80
85244;BME280;75643;56.928;41.094;2024-03-02T05:59:21;101666.53;;;1.51;85.37
85244;BME280;75643;56.928;41.094;2024-03-02T06:01:48;101674.59;;;1.39;85.02
85244;BME280;75643;56.928;41.094;2024-03-02T06:04:18;101668.16;;;1.33;85.92
85244;BME280;75643;56.928;41.094;2024-03-02T06:06:44;101680.47;;;1.35;85.93
85244;BME280;75643;56.928;41.094;2024-03-02T06:09:10;101677.44;;;1.44;85.54
85244;BME280;75643;56.928;41.094;2024-03-02T06:11:43;101681.03;;;1.46;85.67
85244;BME280;75643;56.928;41.094;2024-03-02T06:14:10;101679.81;;;1.39;84.60
85244;BME280;75643;56.928;41.094;2024-03-02T06:16:36;101679.13;;;1.27;85.35
85244;BME280;75643;56.928;41.094;2024-03-02T06:19:02;101680.69;;;1.23;84.99
85244;BME280;75643;56.928;41.094;2024-03-02T06:21:28;101680.38;;;1.34;85.59
85244;BME280;75643;56.928;41.094;2024-03-02T06:23:55;101684.50;;;1.30;85.09
85244;BME280;75643;56.928;41.094;2024-03-02T06:26:21;101685.66;;;1.35;85.28
85244;BME280;75643;56.928;41.094;2024-03-02T06:28:47;101670.59;;;1.30;85.22
85244;BME280;75643;56.928;41.094;2024-03-02T06:31:13;101694.78;;;1.43;85.54
85244;BME280;75643;56.928;41.094;2024-03-02T06:33:39;101693.00;;;1.42;84.91
85244;BME280;75643;56.928;41.094;2024-03-02T06:36:08;101696.16;;;1.37;85.21
85244;BME280;75643;56.928;41.094;2024-03-02T06:38:36;101695.38;;;1.54;84.64
85244;BME280;75643;56.928;41.094;2024-03-02T06:41:02;101687.97;;;1.61;84.27
85244;BME280;75643;56.928;41.094;2024-03-02T06:43:29;101689.91;;;1.49;83.96
85244;BME280;75643;56.928;41.094;2024-03-02T06:45:56;101692.03;;;1.40;84.17
85244;BME280;75643;56.928;41.094;2024-03-02T06:48:22;101688.91;;;1.47;84.54
85244;BME280;75643;56.928;41.094;2024-03-02T06:50:49;101687.16;;;1.62;84.57
85244;BME280;75643;56.928;41.094;2024-03-02T06:53:16;101672.66;;;1.68;83.70
85244;BME280;75643;56.928;41.094;2024-03-02T06:55:44;101677.16;;;1.86;83.80
85244;BME280;75643;56.928;41.094;2024-03-02T06:58:11;101685.63;;;1.98;83.12
85244;BME280;75643;56.928;41.094;2024-03-02T07:00:38;101680.66;;;2.03;82.69
85244;BME280;75643;56.928;41.094;2024-03-02T07:03:07;101678.81;;;2.18;82.49
85244;BME280;75643;56.928;41.094;2024-03-02T07:05:33;101670.22;;;2.37;82.10
85244;BME280;75643;56.928;41.094;2024-03-02T07:08:00;101677.97;;;2.52;81.15
85244;BME280;75643;56.928;41.094;2024-03-02T07:10:27;101676.97;;;2.50;80.65
85244;BME280;75643;56.928;41.094;2024-03-02T07:12:53;101665.31;;;2.43;80.20
85244;BME280;75643;56.928;41.094;2024-03-02T07:15:19;101678.56;;;2.30;79.66
85244;BME280;75643;56.928;41.094;2024-03-02T07:18:06;101672.47;;;2.29;80.11
85244;BME280;75643;56.928;41.094;2024-03-02T07:20:32;101654.47;;;2.52;80.47
85244;BME280;75643;56.928;41.094;2024-03-02T07:22:59;101663.81;;;2.82;79.27
85244;BME280;75643;56.928;41.094;2024-03-02T07:25:25;101660.31;;;2.64;78.97
85244;BME280;75643;56.928;41.094;2024-03-02T07:27:52;101660.00;;;2.58;78.45
85244;BME280;75643;56.928;41.094;2024-03-02T07:30:19;101669.38;;;2.72;78.20
85244;BME280;75643;56.928;41.094;2024-03-02T07:32:45;101667.56;;;2.87;77.34
85244;BME280;75643;56.928;41.094;2024-03-02T07:35:12;101666.13;;;2.76;77.64
85244;BME280;75643;56.928;41.094;2024-03-02T07:37:39;101670.91;;;2.84;77.03
85244;BME280;75643;56.928;41.094;2024-03-02T07:40:07;101656.88;;;2.65;76.81
85244;BME280;75643;56.928;41.094;2024-03-02T07:42:40;101667.91;;;2.59;77.65
85244;BME280;75643;56.928;41.094;2024-03-02T07:45:07;101656.41;;;2.73;77.71
85244;BME280;75643;56.928;41.094;2024-03-02T07:47:34;101652.53;;;2.83;76.84
85244;BME280;75643;56.928;41.094;2024-03-02T07:50:01;101666.03;;;2.74;76.97
85244;BME280;75643;56.928;41.094;2024-03-02T07:52:28;101656.25;;;2.53;76.66
85244;BME280;75643;56.928;41.094;2024-03-02T07:54:54;101673.03;;;2.58;76.89
85244;BME280;75643;56.928;41.094;2024-03-02T07:57:21;101684.97;;;2.53;77.41
85244;BME280;75643;56.928;41.094;2024-03-02T07:59:47;101673.84;;;2.57;76.92
85244;BME280;75643;56.928;41.094;2024-03-02T08:02:15;101673.09;;;2.41;77.48
85244;BME280;75643;56.928;41.094;2024-03-02T08:04:41;101680.25;;;2.45;77.76
85244;BME280;75643;56.928;41.094;2024-03-02T08:07:07;101680.72;;;2.55;77.70
85244;BME280;75643;56.928;41.094;2024-03-02T08:09:35;101683.56;;;2.77;77.89
85244;BME280;75643;56.928;41.094;2024-03-02T08:12:01;101678.34;;;2.77;76.73
85244;BME280;75643;56.928;41.094;2024-03-02T08:14:27;101667.44;;;2.68;76.35
85244;BME280;75643;56.928;41.094;2024-03-02T08:16:53;101680.00;;;2.75;77.27
85244;BME280;75643;56.928;41.094;2024-03-02T08:19:20;101668.78;;;2.60;76.96
85244;BME280;75643;56.928;41.094;2024-03-02T08:21:48;101683.88;;;2.83;76.64
85244;BME280;75643;56.928;41.094;2024-03-02T08:24:14;101681.44;;;2.86;76.34
85244;BME280;75643;56.928;41.094;2024-03-02T08:26:40;101672.25;;;2.94;76.23
85244;BME280;75643;56.928;41.094;2024-03-02T08:29:07;101662.22;;;3.21;75.61
85244;BME280;75643;56.928;41.094;2024-03-02T08:31:33;101683.00;;;3.55;74.72
85244;BME280;75643;56.928;41.094;2024-03-02T08:33:59;101671.94;;;3.80;73.10
85244;BME280;75643;56.928;41.094;2024-03-02T08:36:26;101683.16;;;3.77;72.30
85244;BME280;75643;56.928;41.094;2024-03-02T08:38:52;101672.97;;;3.64;72.97
85244;BME280;75643;56.928;41.094;2024-03-02T08:41:19;101662.91;;;3.73;73.00
85244;BME280;75643;56.928;41.094;2024-03-02T08:43:45;101676.56;;;4.04;72.05
85244;BME280;75643;56.928;41.094;2024-03-02T08:46:13;101671.41;;;4.06;71.30
85244;BME280;75643;56.928;41.094;2024-03-02T08:48:39;101672.91;;;3.62;71.40
85244;BME280;75643;56.928;41.094;2024-03-02T08:51:05;101677.97;;;3.40;72.76
85244;BME280;75643;56.928;41.094;2024-03-02T08:53:33;101670.72;;;3.35;73.22
85244;BME280;75643;56.928;41.094;2024-03-02T08:56:01;101689.94;;;3.54;73.32
85244;BME280;75643;56.928;41.094;2024-03-02T08:58:27;101668.13;;;3.35;72.66
85244;BME280;75643;56.928;41.094;2024-03-02T09:00:57;101678.31;;;3.30;72.76
85244;BME280;75643;56.928;41.094;2024-03-02T09:03:23;101662.28;;;3.59;72.67
85244;BME280;75643;56.928;41.094;2024-03-02T09:05:50;101658.59;;;3.74;71.99
85244;BME280;75643;56.928;41.094;2024-03-02T09:08:16;101653.94;;;3.49;70.93
85244;BME280;75643;56.928;41.094;2024-03-02T09:10:42;101661.09;;;3.34;72.00
85244;BME280;75643;56.928;41.094;2024-03-02T09:13:09;101672.06;;;3.26;72.36
85244;BME280;75643;56.928;41.094;2024-03-02T09:15:36;101677.75;;;3.36;72.07
85244;BME280;75643;56.928;41.094;2024-03-02T09:18:03;101677.88;;;3.39;71.84
85244;BME280;75643;56.928;41.094;2024-03-02T09:20:30;101683.84;;;3.36;71.94
85244;BME280;75643;56.928;41.094;2024-03-02T09:22:56;101680.72;;;3.25;71.89
85244;BME280;75643;56.928;41.094;2024-03-02T09:25:22;101672.97;;;3.09;71.86
85244;BME280;75643;56.928;41.094;2024-03-02T09:27:48;101684.50;;;3.50;72.28
85244;BME280;75643;56.928;41.094;2024-03-02T09:30:15;101687.50;;;3.96;71.29
85244;BME280;75643;56.928;41.094;2024-03-02T09:32:41;101668.88;;;3.88;69.49
85244;BME280;75643;56.928;41.094;2024-03-02T09:35:08;101678.41;;;3.68;70.42
85244;BME280;75643;56.928;41.094;2024-03-02T09:37:35;101678.94;;;3.61;70.03
85244;BME280;75643;56.928;41.094;2024-03-02T09:40:02;101679.75;;;3.60;70.34
85244;BME280;75643;56.928;41.094;2024-03-02T09:42:30;101679.59;;;3.75;69.92
85244;BME280;75643;56.928;41.094;2024-03-02T09:44:58;101688.66;;;3.83;69.38
85244;BME280;75643;56.928;41.094;2024-03-02T09:47:24;101684.13;;;4.18;68.98
85244;BME280;75643;56.928;41.094;2024-03-02T09:49:50;101686.69;;;3.97;67.74
85244;BME280;75643;56.928;41.094;2024-03-02T09:52:17;101663.22;;;3.42;68.16
85244;BME280;75643;56.928;41.094;2024-03-02T09:54:43;101672.69;;;3.21;68.68
85244;BME280;75643;56.928;41.094;2024-03-02T09:57:09;101688.72;;;3.28;69.42
85244;BME280;75643;56.928;41.094;2024-03-02T09:59:35;101670.06;;;3.21;68.78
85244;BME280;75643;56.928;41.094;2024-03-02T10:02:03;101689.34;;;3.23;69.77
85244;BME280;75643;56.928;41.094;2024-03-02T10:04:30;101687.47;;;3.20;69.16
85244;BME280;75643;56.928;41.094;2024-03-02T10:07:09;101664.31;;;3.28;69.92
85244;BME280;75643;56.928;41.094;2024-03-02T10:09:37;101681.16;;;3.52;68.87
85244;BME280;75643;56.928;41.094;2024-03-02T10:12:08;101685.31;;;3.49;69.12
85244;BME280;75643;56.928;41.094;2024-03-02T10:14:35;101681.53;;;3.42;69.05
85244;BME280;75643;56.928;41.094;2024-03-02T10:17:03;101672.59;;;3.56;69.04
85244;BME280;75643;56.928;41.094;2024-03-02T10:19:29;101670.13;;;3.59;68.61
85244;BME280;75643;56.928;41.094;2024-03-02T10:22:01;101666.47;;;3.56;67.88
85244;BME280;75643;56.928;41.094;2024-03-02T10:24:41;101664.66;;;3.53;68.31
85244;BME280;75643;56.928;41.094;2024-03-02T10:27:17;101670.81;;;3.55;68.09
85244;BME280;75643;56.928;41.094;2024-03-02T10:29:47;101676.22;;;3.58;68.02
85244;BME280;75643;56.928;41.094;2024-03-02T10:32:14;101676.81;;;3.72;68.45
85244;BME280;75643;56.928;41.094;2024-03-02T10:34:43;101666.53;;;3.94;68.29
85244;BME280;75643;56.928;41.094;2024-03-02T10:37:11;101676.44;;;3.82;67.42
85244;BME280;75643;56.928;41.094;2024-03-02T10:39:38;101673.06;;;3.48;67.88
85244;BME280;75643;56.928;41.094;2024-03-02T10:42:07;101678.81;;;3.58;68.70
85244;BME280;75643;56.928;41.094;2024-03-02T10:44:35;101687.63;;;3.80;67.26
85244;BME280;75643;56.928;41.094;2024-03-02T10:47:03;101684.28;;;3.82;67.30
85244;BME280;75643;56.928;41.094;2024-03-02T10:49:31;101680.13;;;3.68;66.98
85244;BME280;75643;56.928;41.094;2024-03-02T10:51:58;101686.03;;;3.83;68.05
85244;BME280;75643;56.928;41.094;2024-03-02T10:54:24;101689.78;;;3.88;67.34
85244;BME280;75643;56.928;41.094;2024-03-02T10:57:03;101682.00;;;3.70;67.23
85244;BME280;75643;56.928;41.094;2024-03-02T10:59:34;101689.78;;;3.69;67.74
85244;BME280;75643;56.928;41.094;2024-03-02T11:02:02;101677.91;;;3.77;67.89
85244;BME280;75643;56.928;41.094;2024-03-02T11:04:30;101679.53;;;3.93;67.02
85244;BME280;75643;56.928;41.094;2024-03-02T11:07:04;101686.75;;;3.79;67.30
85244;BME280;75643;56.928;41.094;2024-03-02T11:09:34;101686.25;;;3.68;67.60
85244;BME280;75643;56.928;41.094;2024-03-02T11:12:19;101677.38;;;3.65;67.75
85244;BME280;75643;56.928;41.094;2024-03-02T11:14:46;101693.50;;;3.74;67.21
85244;BME280;75643;56.928;41.094;2024-03-02T11:17:14;101688.13;;;3.71;67.45
85244;BME280;75643;56.928;41.094;2024-03-02T11:19:44;101684.81;;;3.75;67.76
85244;BME280;75643;56.928;41.094;2024-03-02T11:22:12;101683.38;;;3.82;67.92
85244;BME280;75643;56.928;41.094;2024-03-02T11:24:39;101668.94;;;3.70;67.27
85244;BME280;75643;56.928;41.094;2024-03-02T11:27:06;101688.00;;;3.87;67.25
85244;BME280;75643;56.928;41.094;2024-03-02T11:32:15;101681.50;;;4.18;66.25
85244;BME280;75643;56.928;41.094;2024-03-02T11:34:44;101694.88;;;4.04;65.83
85244;BME280;75643;56.928;41.094;2024-03-02T11:37:14;101685.22;;;4.03;65.71
85244;BME280;75643;56.928;41.094;2024-03-02T11:39:43;101683.59;;;4.05;65.76
85244;BME280;75643;56.928;41.094;2024-03-02T11:42:11;101690.06;;;3.94;65.70
85244;BME280;75643;56.928;41.094;2024-03-02T11:44:38;101694.16;;;3.89;66.24
85244;BME280;75643;56.928;41.094;2024-03-02T11:47:08;101685.22;;;3.84;66.44
85244;BME280;75643;56.928;41.094;2024-03-02T11:49:45;101664.84;;;3.77;66.90
85244;BME280;75643;56.928;41.094;2024-03-02T11:52:15;101678.44;;;3.88;66.28
85244;BME280;75643;56.928;41.094;2024-03-02T11:54:44;101693.34;;;4.09;66.37
85244;BME280;75643;56.928;41.094;2024-03-02T11:57:15;101685.22;;;4.23;66.01
85244;BME280;75643;56.928;41.094;2024-03-02T11:59:42;101692.56;;;4.31;65.38
85244;BME280;75643;56.928;41.094;2024-03-02T12:02:18;101692.94;;;4.20;65.86
85244;BME280;75643;56.928;41.094;2024-03-02T12:04:46;101690.03;;;4.33;65.95
85244;BME280;75643;56.928;41.094;2024-03-02T12:07:23;101696.06;;;4.11;66.17
85244;BME280;75643;56.928;41.094;2024-03-02T12:10:00;101694.69;;;4.00;66.71
85244;BME280;75643;56.928;41.094;2024-03-02T12:12:31;101697.78;;;4.10;66.29
85244;BME280;75643;56.928;41.094;2024-03-02T12:14:57;101700.50;;;4.13;65.98
85244;BME280;75643;56.928;41.094;2024-03-02T12:17:26;101706.16;;;4.23;65.28
85244;BME280;75643;56.928;41.094;2024-03-02T12:19:52;101691.75;;;4.13;65.64
85244;BME280;75643;56.928;41.094;2024-03-02T12:22:18;101700.78;;;4.20;65.86
85244;BME280;75643;56.928;41.094;2024-03-02T12:24:46;101700.22;;;4.07;65.90
85244;BME280;75643;56.928;41.094;2024-03-02T12:27:13;101711.88;;;4.14;66.73
85244;BME280;75643;56.928;41.094;2024-03-02T12:29:40;101709.34;;;4.16;65.36
85244;BME280;75643;56.928;41.094;2024-03-02T12:32:07;101708.25;;;4.10;66.09
85244;BME280;75643;56.928;41.094;2024-03-02T12:34:33;101711.13;;;3.97;66.01
85244;BME280;75643;56.928;41.094;2024-03-02T12:36:59;101715.59;;;3.81;66.25
85244;BME280;75643;56.928;41.094;2024-03-02T12:39:25;101699.63;;;3.75;66.56
85244;BME280;75643;56.928;41.094;2024-03-02T12:41:53;101719.31;;;3.86;66.77
85244;BME280;75643;56.928;41.094;2024-03-02T12:44:20;101717.19;;;3.96;66.44
85244;BME280;75643;56.928;41.094;2024-03-02T12:46:46;101697.63;;;3.69;65.78
85244;BME280;75643;56.928;41.094;2024-03-02T12:49:14;101718.28;;;3.45;65.80
85244;BME280;75643;56.928;41.094;2024-03-02T12:51:44;101713.56;;;3.38;66.47
85244;BME280;75643;56.928;41.094;2024-03-02T12:54:14;101704.13;;;3.22;66.57
85244;BME280;75643;56.928;41.094;2024-03-02T12:56:43;101713.47;;;3.17;66.69